sensor_id;sensor_type;location;lat;lon;timestamp;temperature;humidity
26164;DHT22;13914;48.178;11.716;2023-04-15T00:01:30;5.80;66.20
26164;DHT22;13914;48.178;11.716;2023-04-15T00:03:58;5.80;66.10
26164;DHT22;13914;48.178;11.716;2023-04-15T00:06:24;5.80;65.80
26164;DHT22;13914;48.178;11.716;2023-04-15T00:08:50;5.80;66.70
26164;DHT22;13914;48.178;11.716;2023-04-15T00:11:16;5.80;66.40
26164;DHT22;13914;48.178;11.716;2023-04-15T00:13:42;5.80;66.70
26164;DHT22;13914;48.178;11.716;2023-04-15T00:16:08;5.80;66.30
26164;DHT22;13914;48.178;11.716;2023-04-15T00:18:35;5.80;66.80
26164;DHT22;13914;48.178;11.716;2023-04-15T00:21:02;5.80;67.00
26164;DHT22;13914;48.178;11.716;2023-04-15T00:23:28;5.80;67.70
26164;DHT22;13914;48.178;11.716;2023-04-15T00:25:55;5.80;67.00
26164;DHT22;13914;48.178;11.716;2023-04-15T00:28:21;5.70;66.90
26164;DHT22;13914;48.178;11.716;2023-04-15T00:30:46;5.70;66.90
26164;DHT22;13914;48.178;11.716;2023-04-15T00:33:13;5.70;66.20
26164;DHT22;13914;48.178;11.716;2023-04-15T00:35:39;5.70;66.90
26164;DHT22;13914;48.178;11.716;2023-04-15T00:38:05;5.80;68.40
26164;DHT22;13914;48.178;11.716;2023-04-15T00:40:32;5.70;68.10
26164;DHT22;13914;48.178;11.716;2023-04-15T00:42:58;5.70;67.40
26164;DHT22;13914;48.178;11.716;2023-04-15T00:45:24;5.70;66.80
26164;DHT22;13914;48.178;11.716;2023-04-15T00:47:50;5.70;67.00
26164;DHT22;13914;48.178;11.716;2023-04-15T00:50:16;5.70;66.90
26164;DHT22;13914;48.178;11.716;2023-04-15T00:52:41;5.70;66.80
26164;DHT22;13914;48.178;11.716;2023-04-15T00:55:07;5.70;66.80
26164;DHT22;13914;48.178;11.716;2023-04-15T00:57:35;5.70;66.70
26164;DHT22;13914;48.178;11.716;2023-04-15T01:00:01;5.70;66.90
26164;DHT22;13914;48.178;11.716;2023-04-15T01:02:29;5.70;67.20
26164;DHT22;13914;48.178;11.716;2023-04-15T01:04:56;5.70;66.80
26164;DHT22;13914;48.178;11.716;2023-04-15T01:07:21;5.70;67.00
26164;DHT22;13914;48.178;11.716;2023-04-15T01:09:47;5.70;66.70
26164;DHT22;13914;48.178;11.716;2023-04-15T01:12:13;5.70;67.10
26164;DHT22;13914;48.178;11.716;2023-04-15T01:14:40;5.70;67.20
26164;DHT22;13914;48.178;11.716;2023-04-15T01:17:06;5.70;67.00
26164;DHT22;13914;48.178;11.716;2023-04-15T01:19:33;5.70;66.90
26164;DHT22;13914;48.178;11.716;2023-04-15T01:22:01;5.70;67.00
26164;DHT22;13914;48.178;11.716;2023-04-15T01:24:27;5.60;67.40
26164;DHT22;13914;48.178;11.716;2023-04-15T01:26:54;5.60;67.10
26164;DHT22;13914;48.178;11.716;2023-04-15T01:29:20;5.60;66.50
26164;DHT22;13914;48.178;11.716;2023-04-15T01:31:54;5.60;66.90
26164;DHT22;13914;48.178;11.716;2023-04-15T01:34:20;5.70;66.80
26164;DHT22;13914;48.178;11.716;2023-04-15T01:36:46;5.60;67.20
26164;DHT22;13914;48.178;11.716;2023-04-15T01:39:12;5.60;66.70
26164;DHT22;13914;48.178;11.716;2023-04-15T01:41:38;5.60;67.10
26164;DHT22;13914;48.178;11.716;2023-04-15T01:44:04;5.60;66.70
26164;DHT22;13914;48.178;11.716;2023-04-15T01:46:31;5.60;67.60
26164;DHT22;13914;48.178;11.716;2023-04-15T01:48:57;5.60;66.50
26164;DHT22;13914;48.178;11.716;2023-04-15T01:51:22;5.60;67.40
26164;DHT22;13914;48.178;11.716;2023-04-15T01:53:48;5.60;67.00
26164;DHT22;13914;48.178;11.716;2023-04-15T01:56:14;5.60;66.40
26164;DHT22;13914;48.178;11.716;2023-04-15T01:58:40;5.60;67.10
26164;DHT22;13914;48.178;11.716;2023-04-15T02:01:06;5.60;67.50
26164;DHT22;13914;48.178;11.716;2023-04-15T02:03:31;5.60;67.90
26164;DHT22;13914;48.178;11.716;2023-04-15T02:05:57;5.60;67.40
26164;DHT22;13914;48.178;11.716;2023-04-15T02:08:23;5.60;67.60
26164;DHT22;13914;48.178;11.716;2023-04-15T02:10:49;5.60;66.80
26164;DHT22;13914;48.178;11.716;2023-04-15T02:13:15;5.60;67.00
26164;DHT22;13914;48.178;11.716;2023-04-15T02:15:45;5.60;66.60
26164;DHT22;13914;48.178;11.716;2023-04-15T02:18:12;5.60;66.80
26164;DHT22;13914;48.178;11.716;2023-04-15T02:20:37;5.60;66.90
26164;DHT22;13914;48.178;11.716;2023-04-15T02:23:03;5.60;67.90
26164;DHT22;13914;48.178;11.716;2023-04-15T02:25:31;5.60;67.10
26164;DHT22;13914;48.178;11.716;2023-04-15T02:27:57;5.50;68.30
26164;DHT22;13914;48.178;11.716;2023-04-15T02:30:23;5.60;67.80
26164;DHT22;13914;48.178;11.716;2023-04-15T02:32:49;5.50;67.90
26164;DHT22;13914;48.178;11.716;2023-04-15T02:35:15;5.60;70.00
26164;DHT22;13914;48.178;11.716;2023-04-15T02:37:44;5.50;68.40
26164;DHT22;13914;48.178;11.716;2023-04-15T02:40:10;5.50;67.80
26164;DHT22;13914;48.178;11.716;2023-04-15T02:42:37;5.60;69.30
26164;DHT22;13914;48.178;11.716;2023-04-15T02:45:06;5.60;68.30
26164;DHT22;13914;48.178;11.716;2023-04-15T02:47:33;5.60;68.10
26164;DHT22;13914;48.178;11.716;2023-04-15T02:49:59;5.60;69.40
26164;DHT22;13914;48.178;11.716;2023-04-15T02:52:26;5.50;68.40
26164;DHT22;13914;48.178;11.716;2023-04-15T02:54:52;5.60;68.50
26164;DHT22;13914;48.178;11.716;2023-04-15T02:57:22;5.60;69.30
26164;DHT22;13914;48.178;11.716;2023-04-15T02:59:47;5.60;68.10
26164;DHT22;13914;48.178;11.716;2023-04-15T03:02:13;5.60;68.50
26164;DHT22;13914;48.178;11.716;2023-04-15T03:04:39;5.50;68.40
26164;DHT22;13914;48.178;11.716;2023-04-15T03:07:04;5.60;68.40
26164;DHT22;13914;48.178;11.716;2023-04-15T03:09:30;5.50;68.20
26164;DHT22;13914;48.178;11.716;2023-04-15T03:11:56;5.50;67.70
26164;DHT22;13914;48.178;11.716;2023-04-15T03:14:22;5.50;67.90
26164;DHT22;13914;48.178;11.716;2023-04-15T03:16:48;5.50;68.70
26164;DHT22;13914;48.178;11.716;2023-04-15T03:19:15;5.60;69.40
26164;DHT22;13914;48.178;11.716;2023-04-15T03:21:40;5.50;68.20
26164;DHT22;13914;48.178;11.716;2023-04-15T03:24:06;5.60;68.40
26164;DHT22;13914;48.178;11.716;2023-04-15T03:26:32;5.60;68.50
26164;DHT22;13914;48.178;11.716;2023-04-15T03:28:57;5.60;68.40
26164;DHT22;13914;48.178;11.716;2023-04-15T03:31:23;5.60;67.90
26164;DHT22;13914;48.178;11.716;2023-04-15T03:33:49;5.50;67.80
26164;DHT22;13914;48.178;11.716;2023-04-15T03:36:15;5.50;67.50
26164;DHT22;13914;48.178;11.716;2023-04-15T03:38:41;5.50;70.00
26164;DHT22;13914;48.178;11.716;2023-04-15T03:41:07;5.50;68.40
26164;DHT22;13914;48.178;11.716;2023-04-15T03:43:33;5.50;68.30
26164;DHT22;13914;48.178;11.716;2023-04-15T03:45:59;5.50;68.10
26164;DHT22;13914;48.178;11.716;2023-04-15T03:48:25;5.50;67.90
26164;DHT22;13914;48.178;11.716;2023-04-15T03:50:51;5.50;67.70
26164;DHT22;13914;48.178;11.716;2023-04-15T03:53:17;5.50;67.90
26164;DHT22;13914;48.178;11.716;2023-04-15T03:55:42;5.60;67.80
26164;DHT22;13914;48.178;11.716;2023-04-15T03:58:09;5.50;68.10
26164;DHT22;13914;48.178;11.716;2023-04-15T04:00:37;5.60;67.80
26164;DHT22;13914;48.178;11.716;2023-04-15T04:03:03;5.50;68.10
26164;DHT22;13914;48.178;11.716;2023-04-15T04:05:29;5.60;68.10
26164;DHT22;13914;48.178;11.716;2023-04-15T04:07:55;5.50;67.70
26164;DHT22;13914;48.178;11.716;2023-04-15T04:10:21;5.60;67.80
26164;DHT22;13914;48.178;11.716;2023-04-15T04:12:46;5.50;68.50
26164;DHT22;13914;48.178;11.716;2023-04-15T04:15:12;5.50;68.20
26164;DHT22;13914;48.178;11.716;2023-04-15T04:17:38;5.50;68.00
26164;DHT22;13914;48.178;11.716;2023-04-15T04:20:03;5.50;67.90
26164;DHT22;13914;48.178;11.716;2023-04-15T04:22:30;5.50;68.20
26164;DHT22;13914;48.178;11.716;2023-04-15T04:24:56;5.50;67.90
26164;DHT22;13914;48.178;11.716;2023-04-15T04:27:23;5.50;68.00
26164;DHT22;13914;48.178;11.716;2023-04-15T04:29:49;5.50;68.00
26164;DHT22;13914;48.178;11.716;2023-04-15T04:32:15;5.50;68.40
26164;DHT22;13914;48.178;11.716;2023-04-15T04:34:41;5.50;68.40
26164;DHT22;13914;48.178;11.716;2023-04-15T04:37:07;5.50;68.20
26164;DHT22;13914;48.178;11.716;2023-04-15T04:39:33;5.50;68.00
26164;DHT22;13914;48.178;11.716;2023-04-15T04:41:58;5.50;68.40
26164;DHT22;13914;48.178;11.716;2023-04-15T04:44:24;5.50;68.40
26164;DHT22;13914;48.178;11.716;2023-04-15T04:46:50;5.50;68.20
26164;DHT22;13914;48.178;11.716;2023-04-15T04:49:15;5.50;68.20
26164;DHT22;13914;48.178;11.716;2023-04-15T04:51:41;5.50;67.90
26164;DHT22;13914;48.178;11.716;2023-04-15T04:54:07;5.50;68.10
26164;DHT22;13914;48.178;11.716;2023-04-15T04:56:32;5.60;68.80
26164;DHT22;13914;48.178;11.716;2023-04-15T04:58:59;5.50;68.40
26164;DHT22;13914;48.178;11.716;2023-04-15T05:01:24;5.50;70.20
26164;DHT22;13914;48.178;11.716;2023-04-15T05:03:51;5.50;68.80
26164;DHT22;13914;48.178;11.716;2023-04-15T05:06:17;5.50;68.80
26164;DHT22;13914;48.178;11.716;2023-04-15T05:08:43;5.50;68.90
26164;DHT22;13914;48.178;11.716;2023-04-15T05:11:09;5.60;68.80
26164;DHT22;13914;48.178;11.716;2023-04-15T05:13:34;5.50;68.70
26164;DHT22;13914;48.178;11.716;2023-04-15T05:16:05;5.50;68.60
26164;DHT22;13914;48.178;11.716;2023-04-15T05:18:31;5.50;68.70
26164;DHT22;13914;48.178;11.716;2023-04-15T05:20:57;5.60;68.70
26164;DHT22;13914;48.178;11.716;2023-04-15T05:23:23;5.60;68.40
26164;DHT22;13914;48.178;11.716;2023-04-15T05:25:49;5.60;68.60
26164;DHT22;13914;48.178;11.716;2023-04-15T05:28:15;5.70;68.00
26164;DHT22;13914;48.178;11.716;2023-04-15T05:30:41;5.60;67.90
26164;DHT22;13914;48.178;11.716;2023-04-15T05:33:07;5.60;67.80
26164;DHT22;13914;48.178;11.716;2023-04-15T05:35:33;5.60;67.90
26164;DHT22;13914;48.178;11.716;2023-04-15T05:37:58;5.60;67.70
26164;DHT22;13914;48.178;11.716;2023-04-15T05:40:24;5.60;67.70
26164;DHT22;13914;48.178;11.716;2023-04-15T05:42:50;5.60;67.80
26164;DHT22;13914;48.178;11.716;2023-04-15T05:45:16;5.60;68.00
26164;DHT22;13914;48.178;11.716;2023-04-15T05:47:42;5.60;67.10
26164;DHT22;13914;48.178;11.716;2023-04-15T05:50:08;5.60;67.30
26164;DHT22;13914;48.178;11.716;2023-04-15T05:52:34;5.60;67.10
26164;DHT22;13914;48.178;11.716;2023-04-15T05:54:59;5.60;67.10
26164;DHT22;13914;48.178;11.716;2023-04-15T05:57:25;5.60;67.00
26164;DHT22;13914;48.178;11.716;2023-04-15T05:59:51;5.60;67.10
26164;DHT22;13914;48.178;11.716;2023-04-15T06:02:17;5.70;67.40
26164;DHT22;13914;48.178;11.716;2023-04-15T06:04:43;5.70;67.30
26164;DHT22;13914;48.178;11.716;2023-04-15T06:07:08;5.60;68.50
26164;DHT22;13914;48.178;11.716;2023-04-15T06:09:34;5.70;67.60
26164;DHT22;13914;48.178;11.716;2023-04-15T06:12:00;5.70;67.40
26164;DHT22;13914;48.178;11.716;2023-04-15T06:14:26;5.70;67.60
26164;DHT22;13914;48.178;11.716;2023-04-15T06:16:52;5.70;67.30
26164;DHT22;13914;48.178;11.716;2023-04-15T06:19:17;5.80;67.30
26164;DHT22;13914;48.178;11.716;2023-04-15T06:21:44;5.80;67.50
26164;DHT22;13914;48.178;11.716;2023-04-15T06:24:10;5.80;67.20
26164;DHT22;13914;48.178;11.716;2023-04-15T06:26:36;5.80;67.40
26164;DHT22;13914;48.178;11.716;2023-04-15T06:29:01;5.80;67.10
26164;DHT22;13914;48.178;11.716;2023-04-15T06:31:27;5.80;67.10
26164;DHT22;13914;48.178;11.716;2023-04-15T06:33:53;5.90;67.30
26164;DHT22;13914;48.178;11.716;2023-04-15T06:36:18;5.80;67.10
26164;DHT22;13914;48.178;11.716;2023-04-15T06:38:44;5.90;67.30
26164;DHT22;13914;48.178;11.716;2023-04-15T06:41:10;5.90;67.30
26164;DHT22;13914;48.178;11.716;2023-04-15T06:43:36;6.00;67.10
26164;DHT22;13914;48.178;11.716;2023-04-15T06:46:02;6.00;67.00
26164;DHT22;13914;48.178;11.716;2023-04-15T06:48:28;6.00;67.40
26164;DHT22;13914;48.178;11.716;2023-04-15T06:50:54;6.10;67.30
26164;DHT22;13914;48.178;11.716;2023-04-15T06:53:19;6.10;67.40
26164;DHT22;13914;48.178;11.716;2023-04-15T06:55:46;6.10;66.90
26164;DHT22;13914;48.178;11.716;2023-04-15T06:58:12;6.20;67.10
26164;DHT22;13914;48.178;11.716;2023-04-15T07:00:37;6.20;66.90
26164;DHT22;13914;48.178;11.716;2023-04-15T07:03:03;6.20;67.30
26164;DHT22;13914;48.178;11.716;2023-04-15T07:05:29;6.30;67.10
26164;DHT22;13914;48.178;11.716;2023-04-15T07:07:56;6.30;66.90
26164;DHT22;13914;48.178;11.716;2023-04-15T07:10:22;6.40;67.00
26164;DHT22;13914;48.178;11.716;2023-04-15T07:12:48;6.40;67.00
26164;DHT22;13914;48.178;11.716;2023-04-15T07:15:15;6.40;67.10
26164;DHT22;13914;48.178;11.716;2023-04-15T07:17:41;6.50;67.30
26164;DHT22;13914;48.178;11.716;2023-04-15T07:20:10;6.50;67.00
26164;DHT22;13914;48.178;11.716;2023-04-15T07:22:37;6.60;66.90
26164;DHT22;13914;48.178;11.716;2023-04-15T07:25:03;6.60;67.00
26164;DHT22;13914;48.178;11.716;2023-04-15T07:27:29;6.70;66.80
26164;DHT22;13914;48.178;11.716;2023-04-15T07:29:55;6.70;66.50
26164;DHT22;13914;48.178;11.716;2023-04-15T07:32:21;6.80;66.50
26164;DHT22;13914;48.178;11.716;2023-04-15T07:34:46;6.80;66.30
26164;DHT22;13914;48.178;11.716;2023-04-15T07:37:12;6.80;66.20
26164;DHT22;13914;48.178;11.716;2023-04-15T07:39:38;6.80;66.10
26164;DHT22;13914;48.178;11.716;2023-04-15T07:42:03;6.90;66.10
26164;DHT22;13914;48.178;11.716;2023-04-15T07:44:29;6.90;66.00
26164;DHT22;13914;48.178;11.716;2023-04-15T07:46:55;6.90;65.70
26164;DHT22;13914;48.178;11.716;2023-04-15T07:49:21;6.90;65.40
26164;DHT22;13914;48.178;11.716;2023-04-15T07:51:47;7.00;65.40
26164;DHT22;13914;48.178;11.716;2023-04-15T07:54:14;7.10;65.60
26164;DHT22;13914;48.178;11.716;2023-04-15T07:56:40;7.10;65.20
26164;DHT22;13914;48.178;11.716;2023-04-15T07:59:06;7.10;65.00
26164;DHT22;13914;48.178;11.716;2023-04-15T08:01:32;7.20;65.00
26164;DHT22;13914;48.178;11.716;2023-04-15T08:03:58;7.20;65.30
26164;DHT22;13914;48.178;11.716;2023-04-15T08:06:24;7.30;65.20
26164;DHT22;13914;48.178;11.716;2023-04-15T08:08:49;7.30;65.30
26164;DHT22;13914;48.178;11.716;2023-04-15T08:11:15;7.30;65.20
26164;DHT22;13914;48.178;11.716;2023-04-15T08:13:41;7.40;65.30
26164;DHT22;13914;48.178;11.716;2023-04-15T08:18:43;7.50;64.90
26164;DHT22;13914;48.178;11.716;2023-04-15T08:21:09;7.60;65.10
26164;DHT22;13914;48.178;11.716;2023-04-15T08:23:35;7.70;64.40
26164;DHT22;13914;48.178;11.716;2023-04-15T08:26:01;7.70;65.00
26164;DHT22;13914;48.178;11.716;2023-04-15T08:28:27;7.80;64.80
26164;DHT22;13914;48.178;11.716;2023-04-15T08:30:52;7.80;64.50
26164;DHT22;13914;48.178;11.716;2023-04-15T08:33:18;7.90;64.40
26164;DHT22;13914;48.178;11.716;2023-04-15T08:35:44;8.00;64.40
26164;DHT22;13914;48.178;11.716;2023-04-15T08:38:09;8.00;64.30
26164;DHT22;13914;48.178;11.716;2023-04-15T08:40:39;8.10;64.50
26164;DHT22;13914;48.178;11.716;2023-04-15T08:43:06;8.10;63.30
26164;DHT22;13914;48.178;11.716;2023-04-15T08:45:35;8.10;63.40
26164;DHT22;13914;48.178;11.716;2023-04-15T08:48:03;8.20;64.00
26164;DHT22;13914;48.178;11.716;2023-04-15T08:50:30;8.20;64.00
26164;DHT22;13914;48.178;11.716;2023-04-15T08:53:00;8.30;64.20
26164;DHT22;13914;48.178;11.716;2023-04-15T08:55:27;8.30;63.00
26164;DHT22;13914;48.178;11.716;2023-04-15T08:57:55;8.40;63.80
26164;DHT22;13914;48.178;11.716;2023-04-15T09:00:20;8.40;63.80
26164;DHT22;13914;48.178;11.716;2023-04-15T09:02:47;8.40;63.40
26164;DHT22;13914;48.178;11.716;2023-04-15T09:05:13;8.50;63.30
26164;DHT22;13914;48.178;11.716;2023-04-15T09:07:38;8.60;62.90
26164;DHT22;13914;48.178;11.716;2023-04-15T09:10:04;8.60;63.20
26164;DHT22;13914;48.178;11.716;2023-04-15T09:12:33;8.60;63.50
26164;DHT22;13914;48.178;11.716;2023-04-15T09:15:00;8.70;63.10
26164;DHT22;13914;48.178;11.716;2023-04-15T09:17:27;8.70;63.20
26164;DHT22;13914;48.178;11.716;2023-04-15T09:22:35;8.80;63.40
26164;DHT22;13914;48.178;11.716;2023-04-15T09:25:01;8.80;63.60
26164;DHT22;13914;48.178;11.716;2023-04-15T09:27:28;8.80;63.10
26164;DHT22;13914;48.178;11.716;2023-04-15T09:29:53;8.80;63.50
26164;DHT22;13914;48.178;11.716;2023-04-15T09:32:19;8.90;63.50
26164;DHT22;13914;48.178;11.716;2023-04-15T09:34:47;8.90;63.40
26164;DHT22;13914;48.178;11.716;2023-04-15T09:37:13;8.90;63.30
26164;DHT22;13914;48.178;11.716;2023-04-15T09:39:49;8.90;63.60
26164;DHT22;13914;48.178;11.716;2023-04-15T09:42:16;8.90;63.20
26164;DHT22;13914;48.178;11.716;2023-04-15T09:44:48;9.00;63.50
26164;DHT22;13914;48.178;11.716;2023-04-15T09:47:30;9.00;63.40
26164;DHT22;13914;48.178;11.716;2023-04-15T09:49:57;9.00;63.60
26164;DHT22;13914;48.178;11.716;2023-04-15T09:52:23;9.00;63.70
26164;DHT22;13914;48.178;11.716;2023-04-15T09:54:49;9.00;63.00
26164;DHT22;13914;48.178;11.716;2023-04-15T09:57:17;9.10;63.10
26164;DHT22;13914;48.178;11.716;2023-04-15T09:59:43;9.10;62.90
26164;DHT22;13914;48.178;11.716;2023-04-15T10:02:09;9.10;62.90
26164;DHT22;13914;48.178;11.716;2023-04-15T10:04:37;9.10;62.90
26164;DHT22;13914;48.178;11.716;2023-04-15T10:07:06;9.10;63.00
26164;DHT22;13914;48.178;11.716;2023-04-15T10:09:34;9.10;63.20
26164;DHT22;13914;48.178;11.716;2023-04-15T10:12:01;9.10;62.90
26164;DHT22;13914;48.178;11.716;2023-04-15T10:14:30;9.10;62.60
26164;DHT22;13914;48.178;11.716;2023-04-15T10:16:57;9.20;62.20
26164;DHT22;13914;48.178;11.716;2023-04-15T10:19:26;9.20;62.00
26164;DHT22;13914;48.178;11.716;2023-04-15T10:21:52;9.20;62.80
26164;DHT22;13914;48.178;11.716;2023-04-15T10:24:19;9.20;62.60
26164;DHT22;13914;48.178;11.716;2023-04-15T10:26:45;9.20;62.10
26164;DHT22;13914;48.178;11.716;2023-04-15T10:29:11;9.20;62.30
26164;DHT22;13914;48.178;11.716;2023-04-15T10:31:37;9.20;62.70
26164;DHT22;13914;48.178;11.716;2023-04-15T10:34:03;9.20;61.60
26164;DHT22;13914;48.178;11.716;2023-04-15T10:36:31;9.30;61.60
26164;DHT22;13914;48.178;11.716;2023-04-15T10:38:57;9.20;61.20
26164;DHT22;13914;48.178;11.716;2023-04-15T10:41:24;9.20;61.10
26164;DHT22;13914;48.178;11.716;2023-04-15T10:43:55;9.20;61.90
26164;DHT22;13914;48.178;11.716;2023-04-15T10:46:23;9.20;62.30
26164;DHT22;13914;48.178;11.716;2023-04-15T10:48:52;9.30;61.10
26164;DHT22;13914;48.178;11.716;2023-04-15T10:51:28;9.30;62.00
26164;DHT22;13914;48.178;11.716;2023-04-15T10:53:55;9.30;61.60
26164;DHT22;13914;48.178;11.716;2023-04-15T10:56:23;9.30;61.90
26164;DHT22;13914;48.178;11.716;2023-04-15T10:58:48;9.30;62.10
26164;DHT22;13914;48.178;11.716;2023-04-15T11:01:14;9.40;61.80
26164;DHT22;13914;48.178;11.716;2023-04-15T11:03:41;9.40;62.30
26164;DHT22;13914;48.178;11.716;2023-04-15T11:06:07;9.40;62.30
26164;DHT22;13914;48.178;11.716;2023-04-15T11:08:55;9.40;62.10
26164;DHT22;13914;48.178;11.716;2023-04-15T11:12:03;9.50;61.90
26164;DHT22;13914;48.178;11.716;2023-04-15T11:14:28;9.50;61.90
26164;DHT22;13914;48.178;11.716;2023-04-15T11:16:54;9.50;61.10
26164;DHT22;13914;48.178;11.716;2023-04-15T11:19:20;9.50;61.60
26164;DHT22;13914;48.178;11.716;2023-04-15T11:21:46;9.50;60.90
26164;DHT22;13914;48.178;11.716;2023-04-15T11:24:22;9.50;61.90
26164;DHT22;13914;48.178;11.716;2023-04-15T11:26:56;9.50;60.40
26164;DHT22;13914;48.178;11.716;2023-04-15T11:29:27;9.50;60.80
26164;DHT22;13914;48.178;11.716;2023-04-15T11:32:03;9.50;61.30
26164;DHT22;13914;48.178;11.716;2023-04-15T11:34:30;9.60;60.80
26164;DHT22;13914;48.178;11.716;2023-04-15T11:36:56;9.60;60.00
26164;DHT22;13914;48.178;11.716;2023-04-15T11:39:22;9.60;60.20
26164;DHT22;13914;48.178;11.716;2023-04-15T11:41:48;9.60;60.60
26164;DHT22;13914;48.178;11.716;2023-04-15T11:44:17;9.60;61.20
26164;DHT22;13914;48.178;11.716;2023-04-15T11:46:43;9.60;60.80
26164;DHT22;13914;48.178;11.716;2023-04-15T11:49:08;9.70;59.90
26164;DHT22;13914;48.178;11.716;2023-04-15T11:51:34;9.70;60.10
26164;DHT22;13914;48.178;11.716;2023-04-15T11:54:00;9.70;59.30
26164;DHT22;13914;48.178;11.716;2023-04-15T11:56:26;9.70;59.20
26164;DHT22;13914;48.178;11.716;2023-04-15T11:58:52;9.70;60.10
26164;DHT22;13914;48.178;11.716;2023-04-15T12:01:35;9.70;59.50
26164;DHT22;13914;48.178;11.716;2023-04-15T12:04:14;9.60;59.00
26164;DHT22;13914;48.178;11.716;2023-04-15T12:06:42;9.60;59.30
26164;DHT22;13914;48.178;11.716;2023-04-15T12:14:07;9.60;59.20
26164;DHT22;13914;48.178;11.716;2023-04-15T12:16:34;9.60;59.80
26164;DHT22;13914;48.178;11.716;2023-04-15T12:19:03;9.60;60.30
26164;DHT22;13914;48.178;11.716;2023-04-15T12:21:35;9.60;60.10
26164;DHT22;13914;48.178;11.716;2023-04-15T12:24:03;9.60;60.50
26164;DHT22;13914;48.178;11.716;2023-04-15T12:29:15;9.60;60.60
26164;DHT22;13914;48.178;11.716;2023-04-15T12:31:48;9.60;60.70
26164;DHT22;13914;48.178;11.716;2023-04-15T12:34:16;9.60;60.40
26164;DHT22;13914;48.178;11.716;2023-04-15T12:36:42;9.60;58.70
26164;DHT22;13914;48.178;11.716;2023-04-15T12:39:08;9.60;59.80
26164;DHT22;13914;48.178;11.716;2023-04-15T12:41:34;9.60;60.00
26164;DHT22;13914;48.178;11.716;2023-04-15T12:44:00;9.60;59.40
26164;DHT22;13914;48.178;11.716;2023-04-15T12:46:26;9.60;59.40
26164;DHT22;13914;48.178;11.716;2023-04-15T12:48:51;9.50;58.70
26164;DHT22;13914;48.178;11.716;2023-04-15T12:51:18;9.60;58.90
26164;DHT22;13914;48.178;11.716;2023-04-15T12:53:45;9.50;58.10
26164;DHT22;13914;48.178;11.716;2023-04-15T12:56:12;9.50;57.90
26164;DHT22;13914;48.178;11.716;2023-04-15T12:58:38;9.50;58.30
26164;DHT22;13914;48.178;11.716;2023-04-15T13:01:03;9.50;58.30
26164;DHT22;13914;48.178;11.716;2023-04-15T13:03:29;9.50;57.10
26164;DHT22;13914;48.178;11.716;2023-04-15T13:05:56;9.50;57.10
26164;DHT22;13914;48.178;11.716;2023-04-15T13:08:22;9.40;57.10
26164;DHT22;13914;48.178;11.716;2023-04-15T13:10:48;9.40;55.90
26164;DHT22;13914;48.178;11.716;2023-04-15T13:13:13;9.40;56.30
26164;DHT22;13914;48.178;11.716;2023-04-15T13:15:39;9.40;56.60
26164;DHT22;13914;48.178;11.716;2023-04-15T13:18:05;9.40;57.90
26164;DHT22;13914;48.178;11.716;2023-04-15T13:20:31;9.30;58.60
26164;DHT22;13914;48.178;11.716;2023-04-15T13:22:57;9.30;59.30
26164;DHT22;13914;48.178;11.716;2023-04-15T13:25:22;9.30;59.60
26164;DHT22;13914;48.178;11.716;2023-04-15T13:27:48;9.30;59.80
26164;DHT22;13914;48.178;11.716;2023-04-15T13:30:14;9.30;59.90
26164;DHT22;13914;48.178;11.716;2023-04-15T13:32:40;9.30;60.10
26164;DHT22;13914;48.178;11.716;2023-04-15T13:35:05;9.30;60.20
26164;DHT22;13914;48.178;11.716;2023-04-15T13:37:31;9.30;60.30
26164;DHT22;13914;48.178;11.716;2023-04-15T13:39:57;9.30;60.30
26164;DHT22;13914;48.178;11.716;2023-04-15T13:42:23;9.30;60.50
26164;DHT22;13914;48.178;11.716;2023-04-15T13:44:49;9.30;60.60
26164;DHT22;13914;48.178;11.716;2023-04-15T13:47:18;9.30;60.70
26164;DHT22;13914;48.178;11.716;2023-04-15T13:49:44;9.30;60.70
26164;DHT22;13914;48.178;11.716;2023-04-15T13:52:10;9.30;60.80
26164;DHT22;13914;48.178;11.716;2023-04-15T13:54:36;9.30;61.20
26164;DHT22;13914;48.178;11.716;2023-04-15T13:57:02;9.30;61.20
26164;DHT22;13914;48.178;11.716;2023-04-15T13:59:28;9.30;61.40
26164;DHT22;13914;48.178;11.716;2023-04-15T14:01:53;9.30;61.20
26164;DHT22;13914;48.178;11.716;2023-04-15T14:04:19;9.30;61.50
26164;DHT22;13914;48.178;11.716;2023-04-15T14:06:45;9.30;61.20
26164;DHT22;13914;48.178;11.716;2023-04-15T14:09:10;9.30;60.80
26164;DHT22;13914;48.178;11.716;2023-04-15T14:11:37;9.30;60.90
26164;DHT22;13914;48.178;11.716;2023-04-15T14:14:03;9.30;60.30
26164;DHT22;13914;48.178;11.716;2023-04-15T14:16:31;9.30;60.50
26164;DHT22;13914;48.178;11.716;2023-04-15T14:18:57;9.20;59.90
26164;DHT22;13914;48.178;11.716;2023-04-15T14:21:23;9.20;59.20
26164;DHT22;13914;48.178;11.716;2023-04-15T14:23:50;9.20;59.30
26164;DHT22;13914;48.178;11.716;2023-04-15T14:26:16;9.20;59.30
26164;DHT22;13914;48.178;11.716;2023-04-15T14:28:41;9.10;58.90
26164;DHT22;13914;48.178;11.716;2023-04-15T14:31:09;9.10;59.20
26164;DHT22;13914;48.178;11.716;2023-04-15T14:33:35;9.10;58.60
26164;DHT22;13914;48.178;11.716;2023-04-15T14:36:01;9.10;58.90
26164;DHT22;13914;48.178;11.716;2023-04-15T14:38:26;9.10;59.30
26164;DHT22;13914;48.178;11.716;2023-04-15T14:43:37;9.10;59.10
26164;DHT22;13914;48.178;11.716;2023-04-15T14:46:03;9.10;58.70
26164;DHT22;13914;48.178;11.716;2023-04-15T14:48:29;9.10;58.60
26164;DHT22;13914;48.178;11.716;2023-04-15T14:50:56;9.00;59.20
26164;DHT22;13914;48.178;11.716;2023-04-15T14:53:24;9.10;59.10
26164;DHT22;13914;48.178;11.716;2023-04-15T14:55:49;9.00;58.80
26164;DHT22;13914;48.178;11.716;2023-04-15T14:58:15;9.00;59.10
26164;DHT22;13914;48.178;11.716;2023-04-15T15:00:42;9.00;59.70
26164;DHT22;13914;48.178;11.716;2023-04-15T15:03:09;9.00;60.10
26164;DHT22;13914;48.178;11.716;2023-04-15T15:05:42;9.00;60.60
26164;DHT22;13914;48.178;11.716;2023-04-15T15:08:11;9.00;60.70
26164;DHT22;13914;48.178;11.716;2023-04-15T15:10:38;9.00;61.00
26164;DHT22;13914;48.178;11.716;2023-04-15T15:13:05;9.00;61.10
26164;DHT22;13914;48.178;11.716;2023-04-15T15:15:32;9.00;61.50
26164;DHT22;13914;48.178;11.716;2023-04-15T15:17:58;9.00;61.60
26164;DHT22;13914;48.178;11.716;2023-04-15T15:20:24;9.00;61.80
26164;DHT22;13914;48.178;11.716;2023-04-15T15:22:53;9.00;61.90
26164;DHT22;13914;48.178;11.716;2023-04-15T15:25:18;8.90;61.90
26164;DHT22;13914;48.178;11.716;2023-04-15T15:27:44;8.90;62.00
26164;DHT22;13914;48.178;11.716;2023-04-15T15:30:10;8.90;61.70
26164;DHT22;13914;48.178;11.716;2023-04-15T15:32:38;8.90;61.10
26164;DHT22;13914;48.178;11.716;2023-04-15T15:35:04;8.80;60.30
26164;DHT22;13914;48.178;11.716;2023-04-15T15:37:30;8.80;60.90
26164;DHT22;13914;48.178;11.716;2023-04-15T15:39:56;8.80;60.80
26164;DHT22;13914;48.178;11.716;2023-04-15T15:42:22;8.70;60.80